createdAt,value
2023-03-16T00:00:47.838Z,943.24
2023-03-16T00:03:14.277Z,943.26
2023-03-16T00:05:40.624Z,943.26
2023-03-16T00:08:06.983Z,943.26
2023-03-16T00:10:33.382Z,943.30
2023-03-16T00:12:59.698Z,943.42
2023-03-16T00:15:26.053Z,943.35
2023-03-16T00:17:52.415Z,943.38
2023-03-16T00:20:18.835Z,943.42
2023-03-16T00:22:45.138Z,943.43
2023-03-16T00:33:23.791Z,943.38
2023-03-16T00:35:50.197Z,943.35
2023-03-16T00:38:16.493Z,943.47
2023-03-16T00:40:42.874Z,943.64
2023-03-16T00:43:09.165Z,943.56
2023-03-16T00:45:35.588Z,943.52
2023-03-16T00:48:01.827Z,943.58
2023-03-16T00:50:28.560Z,943.70
2023-03-16T00:52:54.638Z,943.66
2023-03-16T00:55:21.008Z,943.63
2023-03-16T00:57:47.404Z,943.63
2023-03-16T01:00:13.714Z,943.64
2023-03-16T01:02:40.075Z,943.63
2023-03-16T01:05:06.410Z,943.67
2023-03-16T01:07:32.775Z,943.67
2023-03-16T01:09:59.173Z,943.69
2023-03-16T01:12:25.531Z,943.74
2023-03-16T01:14:51.911Z,943.69
2023-03-16T01:17:18.236Z,943.68
2023-03-16T01:19:44.610Z,943.73
2023-03-16T01:22:10.933Z,943.69
2023-03-16T01:24:37.312Z,943.71
2023-03-16T01:27:03.674Z,943.76
2023-03-16T01:29:30.079Z,943.76
2023-03-16T01:31:56.432Z,943.72
2023-03-16T01:34:22.776Z,943.71
2023-03-16T01:36:49.091Z,943.83
2023-03-16T01:39:15.514Z,943.77
2023-03-16T01:41:41.818Z,943.78
2023-03-16T01:44:08.223Z,943.89
2023-03-16T01:46:34.645Z,943.85
2023-03-16T01:49:00.984Z,943.88
2023-03-16T01:51:27.346Z,943.84
2023-03-16T01:53:53.710Z,943.97
2023-03-16T01:56:20.083Z,943.93
2023-03-16T01:58:46.453Z,944.00
2023-03-16T02:01:12.862Z,944.05
2023-03-16T02:03:39.252Z,944.07
2023-03-16T02:06:05.620Z,944.16
2023-03-16T02:08:31.991Z,944.15
2023-03-16T02:10:58.350Z,944.05
2023-03-16T02:13:24.717Z,944.14
2023-03-16T02:15:51.144Z,944.18
2023-03-16T02:18:17.378Z,944.19
2023-03-16T02:20:43.756Z,944.31
2023-03-16T02:23:10.104Z,944.19
2023-03-16T02:25:36.426Z,944.30
2023-03-16T02:28:02.769Z,944.25
2023-03-16T02:30:29.562Z,944.38
2023-03-16T02:32:55.534Z,944.34
2023-03-16T02:35:21.880Z,944.38
2023-03-16T02:37:48.261Z,944.37
2023-03-16T02:40:14.615Z,944.40
2023-03-16T02:42:40.944Z,944.42
2023-03-16T02:45:07.316Z,944.43
2023-03-16T02:47:33.643Z,944.48
2023-03-16T02:55:28.594Z,944.42
2023-03-16T02:57:54.940Z,944.47
2023-03-16T03:00:21.248Z,944.51
2023-03-16T03:02:47.634Z,944.54
2023-03-16T03:05:13.922Z,944.55
2023-03-16T03:07:40.320Z,944.57
2023-03-16T03:10:06.641Z,944.64
2023-03-16T03:12:32.981Z,944.64
2023-03-16T03:14:59.330Z,944.67
2023-03-16T03:17:25.705Z,944.71
2023-03-16T03:19:52.041Z,944.73
2023-03-16T03:22:18.400Z,944.72
2023-03-16T03:24:44.772Z,944.70
2023-03-16T03:27:11.143Z,944.79
2023-03-16T03:29:37.505Z,944.72
2023-03-16T03:32:03.847Z,944.70
2023-03-16T03:34:30.171Z,944.74
2023-03-16T03:36:56.652Z,944.78
2023-03-16T03:39:22.926Z,944.76
2023-03-16T03:41:49.270Z,944.87
2023-03-16T03:44:15.609Z,944.79
2023-03-16T03:46:42.055Z,944.87
2023-03-16T03:49:08.285Z,944.91
2023-03-16T03:51:34.680Z,944.98
2023-03-16T03:54:01.035Z,945.08
2023-03-16T03:56:27.410Z,945.06
2023-03-16T03:58:53.786Z,945.08
2023-03-16T04:01:20.108Z,945.18
2023-03-16T04:03:46.469Z,945.23
2023-03-16T04:06:12.853Z,945.18
2023-03-16T04:08:39.208Z,945.13
2023-03-16T04:11:05.615Z,945.19
2023-03-16T04:13:31.963Z,945.23
2023-03-16T04:15:58.294Z,945.16
2023-03-16T04:18:24.620Z,945.12
2023-03-16T04:20:51.013Z,945.12
2023-03-16T04:23:17.353Z,945.19
2023-03-16T04:25:43.715Z,945.26
2023-03-16T04:28:10.079Z,945.27
2023-03-16T04:30:36.470Z,945.28
2023-03-16T04:33:02.796Z,945.35
2023-03-16T04:35:29.160Z,945.38
2023-03-16T04:37:55.551Z,945.39
2023-03-16T04:40:21.895Z,945.41
2023-03-16T04:42:48.216Z,945.43
2023-03-16T04:45:14.633Z,945.47
2023-03-16T04:47:40.986Z,945.49
2023-03-16T04:50:07.325Z,945.66
2023-03-16T04:52:33.687Z,945.61
2023-03-16T04:55:00.060Z,945.67
2023-03-16T04:57:26.380Z,945.66
2023-03-16T04:59:52.775Z,945.77
2023-03-16T05:02:19.104Z,945.67
2023-03-16T05:04:45.443Z,945.78
2023-03-16T05:07:11.779Z,945.80
2023-03-16T05:09:38.159Z,945.87
2023-03-16T05:12:04.473Z,945.80
2023-03-16T05:14:30.845Z,945.79
2023-03-16T05:16:57.187Z,945.87
2023-03-16T05:19:23.527Z,945.84
2023-03-16T05:21:49.890Z,945.94
2023-03-16T05:24:16.232Z,945.98
2023-03-16T05:26:42.597Z,946.05
2023-03-16T05:29:08.933Z,945.96
2023-03-16T05:31:35.365Z,946.06
2023-03-16T05:34:01.728Z,946.13
2023-03-16T05:36:28.020Z,946.06
2023-03-16T05:38:54.390Z,946.17
2023-03-16T05:41:20.744Z,946.16
2023-03-16T05:43:47.095Z,946.15
2023-03-16T05:46:13.454Z,946.15
2023-03-16T05:48:42.381Z,946.18
2023-03-16T05:51:08.758Z,946.22
2023-03-16T05:53:35.135Z,946.26
2023-03-16T05:56:01.498Z,946.36
2023-03-16T05:58:27.907Z,946.43
2023-03-16T06:00:54.260Z,946.36
2023-03-16T06:03:20.719Z,946.44
2023-03-16T06:05:47.059Z,946.44
2023-03-16T06:08:13.451Z,946.44
2023-03-16T06:10:39.805Z,946.49
2023-03-16T06:13:06.176Z,946.61
2023-03-16T06:15:32.804Z,946.53
2023-03-16T06:17:59.213Z,946.52
2023-03-16T06:20:25.610Z,946.62
2023-03-16T06:22:52.195Z,946.71
2023-03-16T06:25:18.556Z,946.78
2023-03-16T06:27:45.132Z,946.75
2023-03-16T06:30:11.477Z,946.76
2023-03-16T06:32:37.864Z,946.82
2023-03-16T06:35:04.150Z,946.85
2023-03-16T06:37:30.504Z,946.91
2023-03-16T06:39:56.864Z,946.86
2023-03-16T06:42:23.239Z,946.85
2023-03-16T06:44:49.604Z,947.00
2023-03-16T06:47:15.942Z,947.04
2023-03-16T06:49:42.307Z,947.02
2023-03-16T06:52:08.718Z,947.07
2023-03-16T06:54:35.078Z,947.07
2023-03-16T06:57:01.420Z,947.13
2023-03-16T06:59:27.811Z,947.18
2023-03-16T07:01:54.164Z,947.15
2023-03-16T07:04:20.582Z,947.19
2023-03-16T07:06:46.846Z,947.18
2023-03-16T07:09:13.222Z,947.17
2023-03-16T07:11:39.605Z,947.29
2023-03-16T07:14:06.027Z,947.27
2023-03-16T07:16:32.527Z,947.28
2023-03-16T07:18:58.806Z,947.41
2023-03-16T07:21:25.172Z,947.35
2023-03-16T07:23:51.572Z,947.35
2023-03-16T07:26:17.934Z,947.44
2023-03-16T07:28:44.305Z,947.38
2023-03-16T07:31:10.681Z,947.47
2023-03-16T07:33:37.101Z,947.45
2023-03-16T07:36:03.580Z,947.51
2023-03-16T07:38:29.859Z,947.58
2023-03-16T07:40:56.261Z,947.48
2023-03-16T07:43:22.636Z,947.53
2023-03-16T07:45:49.067Z,947.52
2023-03-16T07:48:15.437Z,947.63
2023-03-16T07:50:41.797Z,947.59
2023-03-16T07:53:08.182Z,947.73
2023-03-16T07:55:36.141Z,947.71
2023-03-16T07:58:02.709Z,947.73
2023-03-16T08:00:29.320Z,947.66
2023-03-16T08:02:55.510Z,947.75
2023-03-16T08:05:21.842Z,947.71
2023-03-16T08:07:48.219Z,947.78
2023-03-16T08:10:14.604Z,947.73
2023-03-16T08:12:40.980Z,947.72
2023-03-16T08:15:07.292Z,947.86
2023-03-16T08:17:33.661Z,947.77
2023-03-16T08:20:00.099Z,947.86
2023-03-16T08:22:26.462Z,947.87
2023-03-16T08:24:52.840Z,947.88
2023-03-16T08:27:19.222Z,947.89
2023-03-16T08:29:45.680Z,947.97
2023-03-16T08:32:12.070Z,948.01
2023-03-16T08:34:38.409Z,948.00
2023-03-16T08:37:04.823Z,947.99
2023-03-16T08:39:31.198Z,948.01
2023-03-16T08:41:57.592Z,948.00
2023-03-16T08:44:23.925Z,948.04
2023-03-16T08:46:50.282Z,948.02
2023-03-16T08:49:16.650Z,948.09
2023-03-16T08:51:44.884Z,948.10
2023-03-16T08:54:09.314Z,948.17
2023-03-16T08:56:35.739Z,948.04
2023-03-16T08:59:02.059Z,948.14
2023-03-16T09:01:28.585Z,948.16
2023-03-16T09:03:54.966Z,948.15
2023-03-16T09:06:21.258Z,948.23
2023-03-16T09:08:47.933Z,948.21
2023-03-16T09:11:14.238Z,948.20
2023-03-16T09:13:40.610Z,948.25
2023-03-16T09:16:07.036Z,948.26
2023-03-16T09:18:33.347Z,948.31
2023-03-16T09:21:00.189Z,948.27
2023-03-16T09:23:26.137Z,948.35
2023-03-16T09:25:52.523Z,948.35
2023-03-16T09:28:21.001Z,948.29
2023-03-16T09:30:45.377Z,948.21
2023-03-16T09:33:11.811Z,948.29
2023-03-16T09:35:38.344Z,948.26
2023-03-16T09:38:06.324Z,948.29
2023-03-16T09:40:31.089Z,948.29
2023-03-16T09:42:57.386Z,948.27
2023-03-16T09:45:23.779Z,948.37
2023-03-16T09:47:50.145Z,948.26
2023-03-16T09:50:16.624Z,948.31
2023-03-16T09:52:42.899Z,948.42
2023-03-16T09:55:09.275Z,948.38
2023-03-16T09:57:35.628Z,948.45
2023-03-16T10:00:02.187Z,948.44
2023-03-16T10:02:28.524Z,948.48
2023-03-16T10:04:54.870Z,948.37
2023-03-16T10:07:21.241Z,948.44
2023-03-16T10:09:47.546Z,948.47
2023-03-16T10:12:13.907Z,948.44
2023-03-16T10:14:40.228Z,948.38
2023-03-16T10:17:06.782Z,948.52
2023-03-16T10:19:33.178Z,948.47
2023-03-16T10:21:59.604Z,948.45
2023-03-16T10:24:26.029Z,948.43
2023-03-16T10:26:52.416Z,948.46
2023-03-16T10:29:18.805Z,948.34
2023-03-16T10:31:45.566Z,948.37
2023-03-16T10:34:12.051Z,948.43
2023-03-16T10:36:38.421Z,948.39
2023-03-16T10:39:04.819Z,948.39
2023-03-16T10:41:31.141Z,948.39
2023-03-16T10:43:57.573Z,948.43
2023-03-16T10:46:24.074Z,948.36
2023-03-16T10:48:50.420Z,948.43
2023-03-16T10:51:16.785Z,948.42
2023-03-16T10:53:43.145Z,948.48
2023-03-16T10:56:09.529Z,948.41
2023-03-16T10:58:35.872Z,948.49
2023-03-16T11:01:02.298Z,948.41
2023-03-16T11:03:28.616Z,948.40
2023-03-16T11:05:54.967Z,948.42
2023-03-16T11:08:21.314Z,948.42
2023-03-16T11:10:55.501Z,948.45
2023-03-16T11:13:14.027Z,948.47
2023-03-16T11:15:40.412Z,948.43
2023-03-16T11:18:07.268Z,948.46
2023-03-16T11:20:33.667Z,948.38
2023-03-16T11:23:00.048Z,948.44
2023-03-16T11:25:26.764Z,948.44
2023-03-16T11:27:52.809Z,948.38
2023-03-16T11:30:19.148Z,948.49
2023-03-16T11:32:45.570Z,948.40
2023-03-16T11:35:11.832Z,948.42
2023-03-16T11:37:38.216Z,948.46
2023-03-16T11:40:04.511Z,948.64
2023-03-16T11:42:31.135Z,948.53
2023-03-16T11:44:57.469Z,948.55
2023-03-16T11:47:23.805Z,948.37
2023-03-16T11:49:50.167Z,948.45
2023-03-16T11:52:16.571Z,948.47
2023-03-16T11:54:42.895Z,948.47
2023-03-16T11:57:09.275Z,948.53
2023-03-16T11:59:35.650Z,948.63
2023-03-16T12:02:02.083Z,948.56
2023-03-16T12:04:28.474Z,948.53
2023-03-16T12:06:54.811Z,948.66
2023-03-16T12:09:21.241Z,948.57
2023-03-16T12:11:47.666Z,948.60
2023-03-16T12:14:13.979Z,948.64
2023-03-16T12:16:49.191Z,948.64
2023-03-16T12:19:06.735Z,948.58
2023-03-16T12:21:33.069Z,948.73
2023-03-16T12:23:59.441Z,948.69
2023-03-16T12:26:26.048Z,948.72
2023-03-16T12:28:52.383Z,948.77
2023-03-16T12:31:18.787Z,948.76
2023-03-16T12:33:45.081Z,948.80
2023-03-16T12:36:11.522Z,948.80
2023-03-16T12:38:38.173Z,948.80
2023-03-16T12:41:04.582Z,948.78
2023-03-16T12:43:31.026Z,948.87
2023-03-16T12:45:57.364Z,948.86
2023-03-16T12:48:23.976Z,948.89
2023-03-16T12:50:50.366Z,948.95
2023-03-16T12:53:16.773Z,948.99
2023-03-16T12:55:43.191Z,949.03
2023-03-16T12:58:09.524Z,948.96
2023-03-16T13:00:35.938Z,949.11
2023-03-16T13:03:02.250Z,949.09
2023-03-16T13:05:28.922Z,949.10
2023-03-16T13:07:55.054Z,949.13
2023-03-16T13:10:21.425Z,949.15
2023-03-16T13:12:47.962Z,949.16
2023-03-16T13:15:14.346Z,949.20
2023-03-16T13:17:40.696Z,949.20
2023-03-16T13:20:07.963Z,949.14
2023-03-16T13:22:33.417Z,949.20
2023-03-16T13:24:59.791Z,949.23
2023-03-16T13:27:26.098Z,949.23
2023-03-16T13:29:54.880Z,949.17
2023-03-16T13:32:21.477Z,949.32
2023-03-16T13:34:47.942Z,949.32
2023-03-16T13:37:14.316Z,949.33
2023-03-16T13:39:40.744Z,949.29
2023-03-16T13:42:07.075Z,949.32
2023-03-16T13:44:34.232Z,949.33
2023-03-16T13:47:00.558Z,949.42
2023-03-16T13:49:26.952Z,949.43
2023-03-16T13:51:55.417Z,949.36
2023-03-16T13:54:21.800Z,949.44
2023-03-16T13:56:48.156Z,949.40
2023-03-16T13:59:14.501Z,949.48
2023-03-16T14:01:40.881Z,949.42
2023-03-16T14:04:07.220Z,949.54
2023-03-16T14:06:33.576Z,949.57
2023-03-16T14:09:00.027Z,949.52
2023-03-16T14:11:26.528Z,949.58
2023-03-16T14:13:52.899Z,949.56
2023-03-16T14:16:19.288Z,949.51
2023-03-16T14:18:45.645Z,949.50
2023-03-16T14:21:12.041Z,949.56
2023-03-16T14:23:38.482Z,949.56
2023-03-16T14:26:04.856Z,949.66
2023-03-16T14:28:32.292Z,949.66
2023-03-16T14:30:57.611Z,949.70
2023-03-16T14:33:23.926Z,949.63
2023-03-16T14:35:53.596Z,949.68
2023-03-16T14:38:16.646Z,949.69
2023-03-16T14:40:43.046Z,949.77
2023-03-16T14:43:09.461Z,949.74
2023-03-16T14:45:35.806Z,949.81
2023-03-16T14:48:02.182Z,949.79
2023-03-16T14:50:28.553Z,949.85
2023-03-16T14:52:55.008Z,949.82
2023-03-16T14:55:21.346Z,949.87
2023-03-16T14:57:47.682Z,949.90
2023-03-16T15:00:14.078Z,949.94
2023-03-16T15:02:40.432Z,949.98
2023-03-16T15:05:06.819Z,950.01
2023-03-16T15:07:33.199Z,949.99
2023-03-16T15:09:59.928Z,950.08
2023-03-16T15:12:26.300Z,950.08
2023-03-16T15:14:52.623Z,950.17
2023-03-16T15:17:18.977Z,950.13
2023-03-16T15:19:45.332Z,950.10
2023-03-16T15:22:11.683Z,950.19
2023-03-16T15:24:38.077Z,950.17
2023-03-16T15:27:04.489Z,950.21
2023-03-16T15:29:30.860Z,950.23
2023-03-16T15:31:57.300Z,950.29
2023-03-16T15:34:23.635Z,950.30
2023-03-16T15:36:49.987Z,950.35
2023-03-16T15:39:16.374Z,950.32
2023-03-16T15:41:47.697Z,950.42
2023-03-16T15:44:09.124Z,950.41
2023-03-16T15:46:35.501Z,950.43
2023-03-16T15:49:01.867Z,950.42
2023-03-16T15:51:28.261Z,950.43
2023-03-16T15:53:54.593Z,950.51
2023-03-16T15:56:21.030Z,950.52
2023-03-16T15:58:47.399Z,950.55
2023-03-16T16:01:13.766Z,950.61
2023-03-16T16:03:40.096Z,950.66
2023-03-16T16:06:06.499Z,950.70
2023-03-16T16:08:32.844Z,950.82
2023-03-16T16:10:59.238Z,950.80
2023-03-16T16:13:34.104Z,950.80
2023-03-16T16:15:53.670Z,950.84
2023-03-16T16:18:21.889Z,950.88
2023-03-16T16:20:47.233Z,950.91
2023-03-16T16:23:13.618Z,950.88
2023-03-16T16:25:40.033Z,950.98
2023-03-16T16:28:06.379Z,950.89
2023-03-16T16:30:32.856Z,951.02
2023-03-16T16:32:59.346Z,951.02
2023-03-16T16:35:25.611Z,951.08
2023-03-16T16:37:51.927Z,951.09
2023-03-16T16:40:18.412Z,951.03
2023-03-16T16:42:44.772Z,951.12
2023-03-16T16:45:11.161Z,951.14
2023-03-16T16:47:37.515Z,951.17
2023-03-16T16:50:03.972Z,951.18
2023-03-16T16:52:30.330Z,951.16
2023-03-16T16:54:56.671Z,951.18
2023-03-16T16:57:23.066Z,951.23
2023-03-16T16:59:49.414Z,951.26
2023-03-16T17:02:15.780Z,951.25
2023-03-16T17:04:42.704Z,951.26
2023-03-16T17:07:09.162Z,951.19
2023-03-16T17:09:35.550Z,951.28
2023-03-16T17:12:01.881Z,951.28
2023-03-16T17:14:30.440Z,951.33
2023-03-16T17:16:56.841Z,951.28
2023-03-16T17:19:23.164Z,951.34
2023-03-16T17:21:49.536Z,951.39
2023-03-16T17:24:15.939Z,951.43
2023-03-16T17:26:42.287Z,951.48
2023-03-16T17:29:09.039Z,951.49
2023-03-16T17:31:35.434Z,951.53
2023-03-16T17:34:01.793Z,951.51
2023-03-16T17:36:28.177Z,951.53
2023-03-16T17:38:54.581Z,951.61
2023-03-16T17:41:20.929Z,951.59
2023-03-16T17:43:47.260Z,951.59
2023-03-16T17:46:17.159Z,951.66
2023-03-16T17:48:40.040Z,951.66
2023-03-16T17:51:06.469Z,951.73
2023-03-16T17:53:32.880Z,951.77
2023-03-16T17:55:59.271Z,951.77
2023-03-16T17:58:25.594Z,951.72
2023-03-16T18:00:52.058Z,951.81
2023-03-16T18:03:18.424Z,951.84
2023-03-16T18:05:44.777Z,951.80
2023-03-16T18:08:11.081Z,951.82
2023-03-16T18:10:37.476Z,951.89
2023-03-16T18:13:03.938Z,951.84
2023-03-16T18:15:30.304Z,951.87
2023-03-16T18:17:56.639Z,951.85
2023-03-16T18:20:23.103Z,951.87
2023-03-16T18:22:49.436Z,951.96
2023-03-16T18:25:15.840Z,951.99
2023-03-16T18:27:42.242Z,951.91
2023-03-16T18:30:08.610Z,951.97
2023-03-16T18:32:34.941Z,951.95
2023-03-16T18:35:03.537Z,951.96
2023-03-16T18:37:27.685Z,951.99
2023-03-16T18:39:54.038Z,951.90
2023-03-16T18:42:20.421Z,952.00
2023-03-16T18:44:46.829Z,951.99
2023-03-16T18:47:13.152Z,952.07
2023-03-16T18:49:39.801Z,952.09
2023-03-16T18:52:06.152Z,952.10
2023-03-16T18:54:32.496Z,952.07
2023-03-16T18:56:59.170Z,952.06
2023-03-16T18:59:25.530Z,952.10
2023-03-16T19:01:51.909Z,952.12
2023-03-16T19:04:18.378Z,952.17
2023-03-16T19:06:44.805Z,952.15
2023-03-16T19:09:11.213Z,952.16
2023-03-16T19:11:37.558Z,952.17
2023-03-16T19:14:04.312Z,952.25
2023-03-16T19:16:30.709Z,952.28
2023-03-16T19:18:56.961Z,952.27
2023-03-16T19:21:23.336Z,952.32
2023-03-16T19:23:49.704Z,952.29
2023-03-16T19:26:16.103Z,952.31
2023-03-16T19:28:42.505Z,952.33
2023-03-16T19:31:08.865Z,952.32
2023-03-16T19:33:35.280Z,952.33
2023-03-16T19:36:01.711Z,952.32
2023-03-16T19:38:28.090Z,952.32
2023-03-16T19:40:54.432Z,952.32
2023-03-16T19:43:20.809Z,952.35
2023-03-16T19:45:47.270Z,952.31
2023-03-16T19:48:13.620Z,952.22
2023-03-16T19:50:40.106Z,952.31
2023-03-16T19:53:06.498Z,952.40
2023-03-16T19:55:32.893Z,952.37
2023-03-16T19:57:59.348Z,952.36
2023-03-16T20:00:25.810Z,952.36
2023-03-16T20:02:52.295Z,952.42
2023-03-16T20:05:18.788Z,952.40
2023-03-16T20:07:45.437Z,952.36
2023-03-16T20:10:11.863Z,952.49
2023-03-16T20:12:38.138Z,952.45
2023-03-16T20:15:04.559Z,952.49
2023-03-16T20:17:30.966Z,952.51
2023-03-16T20:19:57.360Z,952.50
2023-03-16T20:22:23.850Z,952.55
2023-03-16T20:24:50.216Z,952.59
2023-03-16T20:27:16.610Z,952.56
2023-03-16T20:29:42.903Z,952.64
2023-03-16T20:32:09.570Z,952.58
2023-03-16T20:34:35.986Z,952.57
2023-03-16T20:37:04.696Z,952.61
2023-03-16T20:39:31.135Z,952.60
2023-03-16T20:41:57.482Z,952.56
2023-03-16T20:44:23.890Z,952.57
2023-03-16T20:46:50.271Z,952.59
2023-03-16T20:49:16.681Z,952.60
2023-03-16T20:51:43.034Z,952.61
2023-03-16T20:54:09.426Z,952.61
2023-03-16T20:56:35.773Z,952.61
2023-03-16T20:59:02.148Z,952.71
2023-03-16T21:01:28.550Z,952.69
2023-03-16T21:03:54.867Z,952.74
2023-03-16T21:06:21.349Z,952.65
2023-03-16T21:08:47.687Z,952.69
2023-03-16T21:11:14.042Z,952.73
2023-03-16T21:13:40.365Z,952.69
2023-03-16T21:16:06.788Z,952.68
2023-03-16T21:18:33.145Z,952.76
2023-03-16T21:20:59.467Z,952.75
2023-03-16T21:23:25.853Z,952.70
2023-03-16T21:25:52.239Z,952.80
2023-03-16T21:28:18.606Z,952.80
2023-03-16T21:30:44.996Z,952.77
2023-03-16T21:33:11.316Z,952.81
2023-03-16T21:35:37.726Z,952.79
2023-03-16T21:38:04.075Z,952.78
2023-03-16T21:40:30.781Z,952.77
2023-03-16T21:42:56.804Z,952.79
2023-03-16T21:45:23.191Z,952.79
2023-03-16T21:47:50.533Z,952.76
2023-03-16T21:50:16.909Z,952.78
2023-03-16T21:52:43.258Z,952.81
2023-03-16T21:55:11.079Z,952.78
2023-03-16T21:57:35.928Z,952.73
2023-03-16T22:00:02.363Z,952.79
2023-03-16T22:02:28.757Z,952.86
2023-03-16T22:04:55.046Z,952.84
2023-03-16T22:07:21.419Z,952.84
2023-03-16T22:09:47.824Z,952.84
2023-03-16T22:12:14.191Z,952.84
2023-03-16T22:14:40.529Z,952.88
2023-03-16T22:17:06.927Z,952.84
2023-03-16T22:19:33.282Z,952.85
2023-03-16T22:21:59.674Z,952.79
2023-03-16T22:24:26.082Z,952.84
2023-03-16T22:26:52.424Z,952.84
2023-03-16T22:29:18.798Z,952.80
2023-03-16T22:31:45.189Z,952.80
2023-03-16T22:34:11.472Z,952.85
2023-03-16T22:36:38.882Z,952.90
2023-03-16T22:39:05.245Z,952.93
2023-03-16T22:41:31.569Z,952.94
2023-03-16T22:43:58.012Z,953.03
2023-03-16T22:46:24.720Z,953.08
2023-03-16T22:48:51.013Z,953.04
2023-03-16T22:51:17.376Z,953.10
2023-03-16T22:53:44.045Z,953.08
2023-03-16T22:56:10.508Z,953.17
2023-03-16T22:58:36.838Z,953.15
2023-03-16T23:01:03.254Z,953.26
2023-03-16T23:03:29.611Z,953.26
2023-03-16T23:05:55.970Z,953.28
2023-03-16T23:08:22.371Z,953.35
2023-03-16T23:10:48.742Z,953.26
2023-03-16T23:13:15.097Z,953.36
2023-03-16T23:15:41.485Z,953.38
2023-03-16T23:18:07.880Z,953.46
2023-03-16T23:20:34.258Z,953.42
2023-03-16T23:23:00.592Z,953.48
2023-03-16T23:25:26.959Z,953.50
2023-03-16T23:27:53.340Z,953.47
2023-03-16T23:30:19.697Z,953.56
2023-03-16T23:32:46.177Z,953.60
2023-03-16T23:35:13.468Z,953.65
2023-03-16T23:37:39.870Z,953.61
2023-03-16T23:40:06.178Z,953.71
2023-03-16T23:42:32.567Z,953.63
2023-03-16T23:44:58.985Z,953.72
2023-03-16T23:47:25.383Z,953.71
2023-03-16T23:49:51.698Z,953.71
2023-03-16T23:52:18.065Z,953.71
2023-03-16T23:54:44.396Z,953.71
2023-03-16T23:57:10.758Z,953.58
2023-03-16T23:59:37.131Z,953.60
